Time;durP1;ratioP1;P1;durP2;ratioP2;P2;SDS_P1;SDS_P2;PMS_P1;PMS_P2;Temp;Humidity;BMP_temperature;BMP_pressure;BME280_temperature;BME280_humidity;BME280_pressure;Samples;Min_cycle;Max_cycle;Signal;HPM_P1;HPM_P2
2022/08/01 00:00:01;;;;;;;;;;;18.90;93.40;;;;;;5053686;28;20007;-73
2022/08/01 00:02:27;;;;;;;;;;;19.00;93.40;;;;;;5052963;28;19952;-73
2022/08/01 00:04:55;;;;;;;;;;;18.90;93.30;;;;;;5059013;28;20017;-73
2022/08/01 00:07:21;;;;;;;;;;;18.90;93.40;;;;;;5053163;28;19916;-73
2022/08/01 00:09:46;;;;;;;;;;;19.10;92.70;;;;;;5053483;28;20274;-73
2022/08/01 00:12:12;;;;;;;;;;;19.10;93.10;;;;;;5052777;28;19912;-73
2022/08/01 00:14:37;;;;;;;;;;;19.10;93.10;;;;;;5052661;28;19921;-73
2022/08/01 00:17:03;;;;;;;;;;;19.10;93.00;;;;;;5052889;28;19920;-73
2022/08/01 00:19:28;;;;;;;;;;;19.10;92.90;;;;;;5053270;28;19991;-73
2022/08/01 00:21:54;;;;;;;;;;;19.30;92.50;;;;;;5052627;28;20212;-73
2022/08/01 00:24:19;;;;;;;;;;;19.20;93.10;;;;;;5052306;28;19909;-73
2022/08/01 00:26:45;;;;;;;;;;;18.90;93.60;;;;;;5052900;28;19908;-73
2022/08/01 00:29:10;;;;;;;;;;;18.70;94.10;;;;;;5052740;28;20007;-73
2022/08/01 00:31:36;;;;;;;;;;;18.60;94.40;;;;;;5049402;28;19913;-73
2022/08/01 00:34:01;;;;;;;;;;;18.50;94.70;;;;;;5053333;28;19913;-73
2022/08/01 00:36:27;;;;;;;;;;;18.60;94.80;;;;;;5052761;28;19909;-73
2022/08/01 00:38:52;;;;;;;;;;;18.50;94.80;;;;;;5049838;28;20328;-73
2022/08/01 00:41:18;;;;;;;;;;;18.30;95.00;;;;;;5050516;28;19913;-73
2022/08/01 00:43:43;;;;;;;;;;;18.30;95.30;;;;;;5051926;28;19916;-73
2022/08/01 00:46:09;;;;;;;;;;;18.40;95.30;;;;;;5052369;28;20361;-73
2022/08/01 00:48:34;;;;;;;;;;;18.30;95.40;;;;;;5051212;28;19917;-73
2022/08/01 00:51:00;;;;;;;;;;;18.20;95.90;;;;;;5050412;28;19909;-73
2022/08/01 00:53:26;;;;;;;;;;;18.20;96.10;;;;;;5047956;28;19919;-73
2022/08/01 00:55:52;;;;;;;;;;;18.20;95.90;;;;;;5052382;28;19912;-73
2022/08/01 00:58:17;;;;;;;;;;;18.10;96.50;;;;;;5047462;28;20363;-73
2022/08/01 01:00:43;;;;;;;;;;;18.00;97.10;;;;;;5056877;28;20259;-73
2022/08/01 01:03:08;;;;;;;;;;;17.90;97.20;;;;;;5051130;28;19935;-73
2022/08/01 01:05:40;;;;;;;;;;;17.90;97.80;;;;;;5053752;28;19916;-73
2022/08/01 01:08:13;;;;;;;;;;;17.90;97.30;;;;;;5053196;28;19916;-73
2022/08/01 01:10:52;;;;;;;;;;;18.00;97.30;;;;;;5052170;28;20259;-73
2022/08/01 01:13:37;;;;;;;;;;;17.80;97.90;;;;;;5050783;28;20010;-72
2022/08/01 01:16:08;;;;;;;;;;;18.00;97.80;;;;;;5046316;28;19979;-73
2022/08/01 01:18:46;;;;;;;;;;;17.90;98.20;;;;;;5051793;28;20282;-72
2022/08/01 01:21:17;;;;;;;;;;;18.20;97.60;;;;;;5051500;28;19908;-73
2022/08/01 01:24:01;;;;;;;;;;;18.10;97.60;;;;;;5051195;28;19917;-73
2022/08/01 01:26:30;;;;;;;;;;;18.10;98.20;;;;;;5051781;28;19909;-73
2022/08/01 01:29:00;;;;;;;;;;;18.50;97.30;;;;;;5051365;28;19909;-73
2022/08/01 01:34:29;;;;;;;;;;;18.80;96.80;;;;;;5049824;28;19939;-73
2022/08/01 01:36:56;;;;;;;;;;;18.80;96.60;;;;;;5046694;28;19954;-72
2022/08/01 01:39:23;;;;;;;;;;;18.90;96.20;;;;;;5051883;28;19917;-72
2022/08/01 01:41:49;;;;;;;;;;;19.10;96.10;;;;;;5047462;28;19909;-73
2022/08/01 01:44:15;;;;;;;;;;;18.90;96.30;;;;;;5050748;28;20388;-72
2022/08/01 01:46:41;;;;;;;;;;;18.60;97.20;;;;;;5051452;28;19909;-73
2022/08/01 01:49:09;;;;;;;;;;;18.50;97.20;;;;;;5051360;28;19916;-73
2022/08/01 01:51:36;;;;;;;;;;;18.30;97.90;;;;;;5050419;28;19909;-73
2022/08/01 01:54:02;;;;;;;;;;;18.30;98.30;;;;;;5050437;28;20011;-73
2022/08/01 01:56:28;;;;;;;;;;;18.40;98.10;;;;;;5051277;28;19952;-73
2022/08/01 01:58:56;;;;;;;;;;;18.70;98.20;;;;;;5053196;28;20293;-73
2022/08/01 02:01:23;;;;;;;;;;;18.40;98.30;;;;;;5050268;28;19960;-73
2022/08/01 02:03:49;;;;;;;;;;;18.60;98.50;;;;;;5050762;28;20037;-73
2022/08/01 02:06:15;;;;;;;;;;;18.40;99.10;;;;;;5050809;28;19912;-73
2022/08/01 02:08:42;;;;;;;;;;;18.30;99.40;;;;;;5051045;28;20565;-73
2022/08/01 02:11:21;;;;;;;;;;;18.20;99.40;;;;;;5050479;28;19931;-72
2022/08/01 02:13:58;;;;;;;;;;;18.10;99.90;;;;;;5050426;28;19939;-72
2022/08/01 02:16:25;;;;;;;;;;;17.80;99.90;;;;;;5051034;28;19959;-72
2022/08/01 02:18:50;;;;;;;;;;;17.70;99.90;;;;;;5051051;28;19909;-72
2022/08/01 02:21:20;;;;;;;;;;;17.50;99.90;;;;;;5050211;28;19962;-72
2022/08/01 02:23:46;;;;;;;;;;;17.50;99.90;;;;;;5050830;28;20362;-72
2022/08/01 02:26:14;;;;;;;;;;;17.60;99.90;;;;;;5050806;28;19915;-72
2022/08/01 02:28:47;;;;;;;;;;;17.60;99.90;;;;;;5048340;28;20274;-73
2022/08/01 02:31:16;;;;;;;;;;;17.60;99.90;;;;;;5050435;28;19970;-73
2022/08/01 02:33:44;;;;;;;;;;;17.50;99.90;;;;;;5050253;28;20431;-73
2022/08/01 02:36:11;;;;;;;;;;;17.60;99.90;;;;;;5050595;28;19916;-73
2022/08/01 02:38:38;;;;;;;;;;;17.40;99.90;;;;;;5050657;28;19909;-73
2022/08/01 02:41:08;;;;;;;;;;;17.30;99.90;;;;;;5050702;28;19912;-73
2022/08/01 02:43:34;;;;;;;;;;;17.40;99.90;;;;;;5043235;28;19913;-72
2022/08/01 02:46:00;;;;;;;;;;;17.40;99.90;;;;;;5050805;28;19988;-73
2022/08/01 02:48:26;;;;;;;;;;;17.40;99.90;;;;;;5050702;28;19960;-73
2022/08/01 02:50:54;;;;;;;;;;;17.30;99.90;;;;;;5050457;28;19956;-73
2022/08/01 02:53:21;;;;;;;;;;;17.20;99.90;;;;;;5049455;28;20007;-72
2022/08/01 02:55:47;;;;;;;;;;;17.10;99.90;;;;;;5050736;28;19909;-73
2022/08/01 02:58:14;;;;;;;;;;;17.00;99.90;;;;;;5050310;28;19908;-73
2022/08/01 03:00:42;;;;;;;;;;;16.80;99.90;;;;;;5050384;28;19909;-73
2022/08/01 03:03:07;;;;;;;;;;;16.80;99.90;;;;;;5051689;28;19951;-73
2022/08/01 03:05:34;;;;;;;;;;;16.60;99.90;;;;;;5053989;28;19948;-72
2022/08/01 03:08:00;;;;;;;;;;;16.60;99.90;;;;;;5053920;28;20003;-73
2022/08/01 03:10:27;;;;;;;;;;;16.50;99.90;;;;;;5054441;28;19952;-73
2022/08/01 03:12:52;;;;;;;;;;;16.50;99.90;;;;;;5053529;28;19908;-72
2022/08/01 03:15:19;;;;;;;;;;;16.40;99.90;;;;;;5053548;28;19908;-72
2022/08/01 03:17:45;;;;;;;;;;;16.40;99.90;;;;;;5054086;28;20000;-73
2022/08/01 03:20:12;;;;;;;;;;;16.40;99.90;;;;;;5053762;28;19908;-73
2022/08/01 03:22:38;;;;;;;;;;;16.30;99.90;;;;;;5053570;28;19999;-73
2022/08/01 03:25:06;;;;;;;;;;;16.30;99.90;;;;;;5052339;28;20054;-73
2022/08/01 03:27:32;;;;;;;;;;;16.20;99.90;;;;;;5055976;28;19919;-73
2022/08/01 03:29:58;;;;;;;;;;;16.10;99.90;;;;;;5055775;28;19998;-73
2022/08/01 03:32:25;;;;;;;;;;;16.00;99.90;;;;;;5053536;28;20432;-73
2022/08/01 03:34:51;;;;;;;;;;;16.00;99.90;;;;;;5051560;28;19946;-73
2022/08/01 03:37:24;;;;;;;;;;;15.80;99.90;;;;;;5053842;28;19996;-73
2022/08/01 03:40:12;;;;;;;;;;;15.60;99.90;;;;;;5053848;28;19915;-73
2022/08/01 03:42:42;;;;;;;;;;;15.40;99.90;;;;;;5047241;28;19909;-73
2022/08/01 03:45:09;;;;;;;;;;;15.20;99.90;;;;;;5053304;28;19913;-73
2022/08/01 03:47:35;;;;;;;;;;;15.10;99.90;;;;;;5053255;28;20381;-73
2022/08/01 03:50:02;;;;;;;;;;;15.10;99.90;;;;;;5052731;28;19911;-73
2022/08/01 03:52:30;;;;;;;;;;;14.90;99.90;;;;;;5051260;28;19942;-73
2022/08/01 03:54:57;;;;;;;;;;;14.80;99.90;;;;;;5054280;28;20317;-73
2022/08/01 03:57:25;;;;;;;;;;;14.90;99.90;;;;;;5050212;28;19913;-73
2022/08/01 03:59:51;;;;;;;;;;;15.00;99.90;;;;;;5059773;28;19913;-73
2022/08/01 04:02:18;;;;;;;;;;;15.00;99.90;;;;;;5052679;28;19909;-73
2022/08/01 04:04:44;;;;;;;;;;;14.90;99.90;;;;;;5053005;28;19913;-73
2022/08/01 04:07:23;;;;;;;;;;;14.80;99.90;;;;;;5051870;28;19909;-74
2022/08/01 04:09:48;;;;;;;;;;;14.80;99.90;;;;;;5053286;28;19974;-73
2022/08/01 04:12:14;;;;;;;;;;;14.80;99.90;;;;;;5052533;28;19914;-73
2022/08/01 04:14:39;;;;;;;;;;;14.80;99.90;;;;;;5052216;28;19943;-72
2022/08/01 04:17:05;;;;;;;;;;;14.90;99.90;;;;;;5053063;28;19908;-73
2022/08/01 04:19:30;;;;;;;;;;;14.90;99.90;;;;;;5053023;28;20374;-73
2022/08/01 04:21:56;;;;;;;;;;;15.00;99.90;;;;;;5047466;28;19913;-73
2022/08/01 04:24:23;;;;;;;;;;;15.00;99.90;;;;;;5057315;28;19913;-73
2022/08/01 04:26:50;;;;;;;;;;;14.90;99.90;;;;;;5052948;28;19948;-73
2022/08/01 04:29:16;;;;;;;;;;;15.00;99.90;;;;;;5052613;28;19916;-73
2022/08/01 04:31:44;;;;;;;;;;;15.00;99.90;;;;;;5052515;28;19912;-73
2022/08/01 04:34:11;;;;;;;;;;;15.00;99.90;;;;;;5052230;28;19912;-73
2022/08/01 04:36:37;;;;;;;;;;;15.00;99.90;;;;;;5052618;28;19992;-73
2022/08/01 04:39:04;;;;;;;;;;;15.00;99.90;;;;;;5052519;28;19919;-73
2022/08/01 04:41:31;;;;;;;;;;;15.10;99.90;;;;;;5052209;28;20008;-73
2022/08/01 04:43:59;;;;;;;;;;;15.20;99.90;;;;;;5052039;28;19909;-74
2022/08/01 04:46:24;;;;;;;;;;;15.30;99.90;;;;;;5046127;28;19909;-73
2022/08/01 04:48:50;;;;;;;;;;;15.30;99.90;;;;;;5045936;28;19909;-73
2022/08/01 04:51:17;;;;;;;;;;;15.50;99.90;;;;;;5052037;28;20348;-73
2022/08/01 04:53:43;;;;;;;;;;;15.60;99.90;;;;;;5051577;28;19955;-73
2022/08/01 04:56:08;;;;;;;;;;;15.60;99.90;;;;;;5052318;28;19936;-73
2022/08/01 04:58:34;;;;;;;;;;;15.60;99.90;;;;;;5052541;28;19908;-73
2022/08/01 05:00:59;;;;;;;;;;;15.60;99.90;;;;;;5046598;28;20425;-73
2022/08/01 05:03:25;;;;;;;;;;;15.70;99.90;;;;;;5051320;28;20022;-74
2022/08/01 05:05:50;;;;;;;;;;;15.80;99.90;;;;;;5052199;28;20277;-73
2022/08/01 05:08:16;;;;;;;;;;;15.80;99.90;;;;;;5051718;28;19916;-73
2022/08/01 05:10:42;;;;;;;;;;;15.80;99.90;;;;;;5052261;28;19990;-73
2022/08/01 05:13:07;;;;;;;;;;;16.00;99.90;;;;;;5050738;28;20413;-74
2022/08/01 05:15:34;;;;;;;;;;;16.10;99.90;;;;;;5050901;28;19913;-73
2022/08/01 05:17:59;;;;;;;;;;;16.40;99.90;;;;;;5051122;28;20278;-73
2022/08/01 05:20:25;;;;;;;;;;;16.70;99.90;;;;;;5051582;28;19991;-73
2022/08/01 05:22:50;;;;;;;;;;;16.90;99.90;;;;;;5052173;28;20001;-74
2022/08/01 05:25:16;;;;;;;;;;;17.20;99.90;;;;;;5048286;28;19917;-73
2022/08/01 05:27:41;;;;;;;;;;;17.40;99.90;;;;;;5051446;28;20327;-74
2022/08/01 05:30:08;;;;;;;;;;;17.50;99.90;;;;;;5051492;28;19912;-74
2022/08/01 05:32:33;;;;;;;;;;;17.60;99.90;;;;;;5050749;28;19913;-74
2022/08/01 05:34:59;;;;;;;;;;;17.60;99.90;;;;;;5050874;28;19920;-73
2022/08/01 05:37:24;;;;;;;;;;;17.60;99.90;;;;;;5051649;28;19935;-74
2022/08/01 05:39:50;;;;;;;;;;;17.60;99.90;;;;;;5050159;28;19916;-74
2022/08/01 05:42:16;;;;;;;;;;;17.60;99.90;;;;;;5050781;28;19920;-74
2022/08/01 05:44:41;;;;;;;;;;;17.70;99.90;;;;;;5050764;28;19955;-74
2022/08/01 05:47:06;;;;;;;;;;;17.90;99.90;;;;;;5051439;28;19909;-73
2022/08/01 05:49:32;;;;;;;;;;;18.00;99.90;;;;;;5051388;28;20286;-74
2022/08/01 05:51:58;;;;;;;;;;;18.10;99.90;;;;;;5049999;28;19957;-74
2022/08/01 05:54:23;;;;;;;;;;;18.20;99.90;;;;;;5050930;28;20019;-74
2022/08/01 05:56:49;;;;;;;;;;;18.40;99.90;;;;;;5056149;28;19950;-73
2022/08/01 05:59:14;;;;;;;;;;;18.50;99.90;;;;;;5051088;28;20022;-73
2022/08/01 06:01:39;;;;;;;;;;;18.60;99.90;;;;;;5050729;28;19910;-74
2022/08/01 06:04:05;;;;;;;;;;;18.70;99.90;;;;;;5050664;28;19909;-73
2022/08/01 06:06:31;;;;;;;;;;;18.60;99.90;;;;;;5051334;28;20317;-74
2022/08/01 06:08:56;;;;;;;;;;;18.50;99.90;;;;;;5051024;28;19917;-74
2022/08/01 06:11:21;;;;;;;;;;;18.60;99.90;;;;;;5050307;28;19916;-74
2022/08/01 06:13:47;;;;;;;;;;;18.70;99.90;;;;;;5048888;28;20393;-73
2022/08/01 06:16:12;;;;;;;;;;;18.60;99.90;;;;;;5051142;28;19917;-74
2022/08/01 06:18:38;;;;;;;;;;;18.50;99.90;;;;;;5051028;28;19909;-74
2022/08/01 06:21:03;;;;;;;;;;;18.40;99.90;;;;;;5048348;28;19999;-73
2022/08/01 06:23:29;;;;;;;;;;;18.20;99.90;;;;;;5048542;28;19979;-73
2022/08/01 06:25:55;;;;;;;;;;;18.20;99.90;;;;;;5044253;28;19915;-74
2022/08/01 06:28:21;;;;;;;;;;;18.20;99.90;;;;;;5048842;28;19909;-74
2022/08/01 06:30:46;;;;;;;;;;;18.10;99.90;;;;;;5046274;28;19909;-73
2022/08/01 06:33:12;;;;;;;;;;;18.10;99.90;;;;;;5050495;28;20290;-73
2022/08/01 06:35:37;;;;;;;;;;;18.10;99.90;;;;;;5050778;28;19912;-74
2022/08/01 06:38:03;;;;;;;;;;;18.30;99.90;;;;;;5049655;28;19920;-74
2022/08/01 06:40:28;;;;;;;;;;;18.30;99.90;;;;;;5056161;28;19909;-75
2022/08/01 06:42:54;;;;;;;;;;;18.40;99.90;;;;;;5053892;28;20416;-73
2022/08/01 06:45:22;;;;;;;;;;;18.50;99.90;;;;;;5052803;28;19909;-74
2022/08/01 06:47:47;;;;;;;;;;;18.70;99.90;;;;;;5054687;28;20378;-74
2022/08/01 06:50:14;;;;;;;;;;;18.80;99.90;;;;;;5053701;28;19919;-74
2022/08/01 06:52:40;;;;;;;;;;;19.10;99.90;;;;;;5058962;28;20015;-74
2022/08/01 06:55:05;;;;;;;;;;;19.50;99.90;;;;;;5050881;28;19924;-74
2022/08/01 06:57:31;;;;;;;;;;;19.60;99.90;;;;;;5052561;28;19908;-74
2022/08/01 06:59:57;;;;;;;;;;;19.80;99.90;;;;;;5053916;28;19908;-74
2022/08/01 07:02:23;;;;;;;;;;;20.20;99.90;;;;;;5053606;28;19912;-74
2022/08/01 07:04:48;;;;;;;;;;;20.90;99.90;;;;;;5052417;28;20432;-73
2022/08/01 07:07:14;;;;;;;;;;;21.30;99.90;;;;;;5053897;28;19936;-75
2022/08/01 07:09:42;;;;;;;;;;;21.80;99.90;;;;;;5047258;28;19913;-74
2022/08/01 07:12:08;;;;;;;;;;;21.80;99.90;;;;;;5052115;28;20348;-74
2022/08/01 07:14:33;;;;;;;;;;;21.90;99.90;;;;;;5052549;28;19917;-74
2022/08/01 07:16:59;;;;;;;;;;;22.50;99.90;;;;;;5054001;28;19913;-74
2022/08/01 07:19:26;;;;;;;;;;;22.70;99.90;;;;;;5053950;28;19908;-75
2022/08/01 07:21:52;;;;;;;;;;;23.40;99.90;;;;;;5053296;28;19924;-74
2022/08/01 07:24:17;;;;;;;;;;;24.50;99.90;;;;;;5052499;28;19913;-74
2022/08/01 07:26:43;;;;;;;;;;;25.20;99.90;;;;;;5053198;28;20435;-74
2022/08/01 07:29:09;;;;;;;;;;;25.40;99.90;;;;;;5057726;28;19909;-74
2022/08/01 07:31:35;;;;;;;;;;;25.60;99.60;;;;;;5053078;28;20270;-74
2022/08/01 07:34:00;;;;;;;;;;;26.30;97.70;;;;;;5052503;28;19919;-74
2022/08/01 07:36:26;;;;;;;;;;;26.90;96.40;;;;;;5047534;28;19943;-74
2022/08/01 07:38:51;;;;;;;;;;;26.70;96.00;;;;;;5050174;28;19909;-73
2022/08/01 07:41:17;;;;;;;;;;;26.80;94.60;;;;;;5042391;28;19951;-75
2022/08/01 07:43:42;;;;;;;;;;;27.20;94.20;;;;;;5052241;28;19950;-74
2022/08/01 07:46:08;;;;;;;;;;;27.40;93.60;;;;;;5053108;28;19916;-74
2022/08/01 07:48:33;;;;;;;;;;;27.70;93.80;;;;;;5052761;28;20413;-71
2022/08/01 07:50:59;;;;;;;;;;;27.60;92.10;;;;;;5056517;28;19988;-72
2022/08/01 07:53:24;;;;;;;;;;;27.70;91.10;;;;;;5055347;28;20019;-73
2022/08/01 07:55:50;;;;;;;;;;;28.20;91.10;;;;;;5051731;28;19917;-73
2022/08/01 07:58:16;;;;;;;;;;;27.80;90.00;;;;;;5056928;28;19916;-73
2022/08/01 08:00:41;;;;;;;;;;;28.50;89.90;;;;;;5048892;28;20362;-74
2022/08/01 08:03:07;;;;;;;;;;;28.90;88.40;;;;;;5054389;28;20140;-74
2022/08/01 08:05:34;;;;;;;;;;;28.50;87.10;;;;;;5057759;28;19954;-73
2022/08/01 08:08:07;;;;;;;;;;;28.50;88.40;;;;;;5051458;28;19917;-73
2022/08/01 08:10:33;;;;;;;;;;;29.10;86.80;;;;;;5053001;28;19948;-73
2022/08/01 08:12:59;;;;;;;;;;;28.30;86.80;;;;;;5052220;28;19986;-74
2022/08/01 08:15:24;;;;;;;;;;;28.70;88.00;;;;;;5052343;28;20259;-73
2022/08/01 08:17:50;;;;;;;;;;;28.60;83.20;;;;;;5052854;28;20102;-74
2022/08/01 08:20:15;;;;;;;;;;;27.90;86.90;;;;;;5053038;28;20068;-74
2022/08/01 08:22:41;;;;;;;;;;;28.50;87.30;;;;;;5051815;28;20298;-74
2022/08/01 08:25:07;;;;;;;;;;;29.40;84.50;;;;;;5051363;28;19909;-73
2022/08/01 08:27:33;;;;;;;;;;;29.70;85.10;;;;;;5055357;28;19915;-76
2022/08/01 08:29:59;;;;;;;;;;;29.60;83.00;;;;;;5052468;28;19909;-73
2022/08/01 08:32:24;;;;;;;;;;;29.70;79.40;;;;;;5052011;28;19916;-74
2022/08/01 08:34:50;;;;;;;;;;;29.20;80.60;;;;;;5051477;28;20163;-74
2022/08/01 08:37:16;;;;;;;;;;;29.40;83.30;;;;;;5051710;28;19923;-73
2022/08/01 08:39:42;;;;;;;;;;;29.30;85.80;;;;;;5052179;28;19913;-74
2022/08/01 08:42:08;;;;;;;;;;;29.10;79.90;;;;;;5048017;28;20328;-74
2022/08/01 08:44:34;;;;;;;;;;;29.70;82.40;;;;;;5049803;28;20015;-74
2022/08/01 08:47:01;;;;;;;;;;;30.40;81.60;;;;;;5051782;28;20330;-73
2022/08/01 08:49:27;;;;;;;;;;;31.50;79.10;;;;;;5049054;28;19909;-74
2022/08/01 08:51:53;;;;;;;;;;;31.90;74.80;;;;;;5051314;28;20218;-74
2022/08/01 08:54:20;;;;;;;;;;;31.90;74.60;;;;;;5050972;28;20351;-74
2022/08/01 08:56:46;;;;;;;;;;;30.00;77.50;;;;;;5049435;28;19962;-74
2022/08/01 08:59:15;;;;;;;;;;;28.90;82.90;;;;;;5057414;28;20394;-73
2022/08/01 09:01:41;;;;;;;;;;;28.10;81.80;;;;;;5050516;28;19909;-73
2022/08/01 09:04:06;;;;;;;;;;;27.20;88.50;;;;;;5049638;28;19909;-73
2022/08/01 09:06:32;;;;;;;;;;;29.50;81.50;;;;;;5051672;28;20009;-74
2022/08/01 09:08:58;;;;;;;;;;;28.30;81.00;;;;;;5051650;28;20313;-74
2022/08/01 09:11:23;;;;;;;;;;;29.20;83.50;;;;;;5051009;28;19913;-74
2022/08/01 09:14:01;;;;;;;;;;;30.10;79.30;;;;;;5050872;28;19916;-74
2022/08/01 09:16:26;;;;;;;;;;;29.80;80.70;;;;;;5051448;28;19909;-74
2022/08/01 09:18:52;;;;;;;;;;;29.50;83.10;;;;;;5049870;28;19939;-74
2022/08/01 09:21:19;;;;;;;;;;;31.00;78.70;;;;;;5056314;28;20004;-74
2022/08/01 09:23:45;;;;;;;;;;;30.00;79.20;;;;;;5050719;28;20436;-74
2022/08/01 09:26:12;;;;;;;;;;;28.30;81.10;;;;;;5051138;28;19915;-74
2022/08/01 09:28:38;;;;;;;;;;;26.70;83.00;;;;;;5046788;28;19909;-74
2022/08/01 09:31:22;;;;;;;;;;;26.60;84.50;;;;;;5055199;28;19913;-73
2022/08/01 09:33:55;;;;;;;;;;;26.00;86.20;;;;;;5043754;28;19913;-74
2022/08/01 09:36:22;;;;;;;;;;;25.70;87.20;;;;;;5045747;28;19909;-74
2022/08/01 09:38:48;;;;;;;;;;;25.90;90.00;;;;;;5051436;28;20305;-74
2022/08/01 09:41:13;;;;;;;;;;;25.80;90.70;;;;;;5042252;28;20016;-73
2022/08/01 09:43:39;;;;;;;;;;;25.90;90.70;;;;;;5049965;28;19909;-74
2022/08/01 09:46:09;;;;;;;;;;;26.00;90.50;;;;;;5051133;28;19915;-74
2022/08/01 09:48:36;;;;;;;;;;;26.10;90.50;;;;;;5052089;28;19909;-74
2022/08/01 09:51:02;;;;;;;;;;;27.00;87.00;;;;;;5047116;28;19917;-74
2022/08/01 09:53:39;;;;;;;;;;;30.10;85.30;;;;;;5055523;28;19991;-74
2022/08/01 09:56:08;;;;;;;;;;;32.10;79.70;;;;;;5050773;28;19909;-74
2022/08/01 09:58:48;;;;;;;;;;;30.50;72.70;;;;;;5050424;28;19913;-75
2022/08/01 10:01:13;;;;;;;;;;;29.50;77.30;;;;;;5050728;28;19913;-75
2022/08/01 10:03:39;;;;;;;;;;;30.60;85.20;;;;;;5056409;28;20298;-75
2022/08/01 10:06:18;;;;;;;;;;;32.30;78.70;;;;;;5050484;28;19913;-75
2022/08/01 10:08:47;;;;;;;;;;;32.90;76.00;;;;;;5050010;28;20023;-75
2022/08/01 10:11:13;;;;;;;;;;;33.00;72.90;;;;;;5050278;28;19909;-75
2022/08/01 10:13:39;;;;;;;;;;;31.70;72.00;;;;;;5049443;28;19920;-76
2022/08/01 10:16:05;;;;;;;;;;;32.30;72.70;;;;;;5050639;28;20281;-75
2022/08/01 10:18:32;;;;;;;;;;;31.70;75.10;;;;;;5049770;28;20107;-75
2022/08/01 10:20:59;;;;;;;;;;;29.40;76.00;;;;;;5050426;28;19909;-75
2022/08/01 10:23:26;;;;;;;;;;;27.60;79.40;;;;;;5048902;28;19955;-75
2022/08/01 10:25:53;;;;;;;;;;;26.40;85.20;;;;;;5050164;28;19913;-75
2022/08/01 10:28:20;;;;;;;;;;;26.70;87.70;;;;;;5051795;28;19909;-75
2022/08/01 10:30:45;;;;;;;;;;;29.50;82.10;;;;;;5048241;28;19941;-75
2022/08/01 10:33:11;;;;;;;;;;;30.80;79.60;;;;;;5049158;28;19948;-75
2022/08/01 10:35:40;;;;;;;;;;;31.50;77.10;;;;;;5050945;28;19912;-75
2022/08/01 10:38:06;;;;;;;;;;;32.20;73.80;;;;;;5050720;28;19909;-75
2022/08/01 10:40:32;;;;;;;;;;;31.30;72.50;;;;;;5049404;28;20008;-76
2022/08/01 10:42:57;;;;;;;;;;;31.00;75.50;;;;;;5045293;28;19917;-75
2022/08/01 10:45:25;;;;;;;;;;;30.40;72.30;;;;;;5051445;28;20294;-75
2022/08/01 10:48:04;;;;;;;;;;;28.60;77.40;;;;;;5051356;28;19923;-75
2022/08/01 10:50:32;;;;;;;;;;;27.20;79.10;;;;;;5050366;28;19955;-75
2022/08/01 10:53:24;;;;;;;;;;;26.70;83.60;;;;;;5051348;28;19916;-75
2022/08/01 10:55:55;;;;;;;;;;;26.60;84.90;;;;;;5044754;28;19921;-75
2022/08/01 10:58:41;;;;;;;;;;;26.00;88.20;;;;;;5052557;28;19909;-75
2022/08/01 11:01:17;;;;;;;;;;;25.50;84.70;;;;;;5055437;28;19912;-75
2022/08/01 11:03:43;;;;;;;;;;;25.80;88.70;;;;;;5049203;28;19916;-75
2022/08/01 11:06:16;;;;;;;;;;;26.30;85.00;;;;;;5050148;28;19962;-75
2022/08/01 11:08:42;;;;;;;;;;;25.90;84.40;;;;;;5050884;28;19917;-73
2022/08/01 11:11:08;;;;;;;;;;;26.00;85.00;;;;;;5050387;28;19909;-73
2022/08/01 11:13:52;;;;;;;;;;;26.20;89.70;;;;;;5049226;28;19920;-73
2022/08/01 11:16:27;;;;;;;;;;;26.10;88.10;;;;;;5044945;28;19913;-74
2022/08/01 11:18:53;;;;;;;;;;;26.30;90.50;;;;;;5048500;28;19916;-74
2022/08/01 11:21:19;;;;;;;;;;;26.00;87.60;;;;;;5049211;28;19913;-73
2022/08/01 11:23:47;;;;;;;;;;;25.90;88.60;;;;;;5048726;28;19909;-74
2022/08/01 11:26:13;;;;;;;;;;;26.00;88.50;;;;;;5051773;28;19909;-73
2022/08/01 11:28:39;;;;;;;;;;;26.00;89.10;;;;;;5058226;28;19932;-74
2022/08/01 11:31:08;;;;;;;;;;;27.30;89.10;;;;;;5053233;28;20361;-74
2022/08/01 11:33:39;;;;;;;;;;;29.00;81.50;;;;;;5052684;28;19913;-74
2022/08/01 11:36:10;;;;;;;;;;;30.70;82.70;;;;;;5052989;28;20369;-74
2022/08/01 11:38:59;;;;;;;;;;;29.30;76.40;;;;;;5053326;28;19962;-74
2022/08/01 11:41:31;;;;;;;;;;;28.80;81.50;;;;;;5051714;28;19916;-74
2022/08/01 11:43:57;;;;;;;;;;;30.80;77.40;;;;;;5046279;28;20374;-74
2022/08/01 11:46:41;;;;;;;;;;;30.40;78.10;;;;;;5049473;28;19916;-74
2022/08/01 11:49:27;;;;;;;;;;;31.60;75.30;;;;;;5049510;28;20390;-74
2022/08/01 11:52:04;;;;;;;;;;;31.50;72.00;;;;;;5044760;28;20382;-74
2022/08/01 11:54:31;;;;;;;;;;;31.20;69.30;;;;;;5051784;28;19944;-74
2022/08/01 11:56:57;;;;;;;;;;;29.00;76.00;;;;;;5058115;28;19961;-74
2022/08/01 11:59:23;;;;;;;;;;;28.30;81.20;;;;;;5046686;28;19967;-73
2022/08/01 12:01:48;;;;;;;;;;;27.90;79.40;;;;;;5050085;28;19913;-73
2022/08/01 12:04:14;;;;;;;;;;;27.10;82.10;;;;;;5058009;28;19941;-73
2022/08/01 12:06:39;;;;;;;;;;;26.60;83.50;;;;;;5052650;28;19980;-73
2022/08/01 12:09:15;;;;;;;;;;;26.30;83.40;;;;;;5051542;28;19917;-74
2022/08/01 12:11:41;;;;;;;;;;;26.00;84.70;;;;;;5051633;28;19909;-73
2022/08/01 12:14:06;;;;;;;;;;;26.00;87.90;;;;;;5052030;28;20416;-74
2022/08/01 12:16:32;;;;;;;;;;;26.00;85.20;;;;;;5052637;28;19909;-74
2022/08/01 12:18:58;;;;;;;;;;;27.00;85.30;;;;;;5053153;28;19916;-74
2022/08/01 12:21:23;;;;;;;;;;;27.80;80.70;;;;;;5052406;28;19920;-74
2022/08/01 12:24:02;;;;;;;;;;;29.20;79.30;;;;;;5051083;28;19909;-74
2022/08/01 12:26:40;;;;;;;;;;;30.00;78.30;;;;;;5056244;28;19909;-74
2022/08/01 12:29:06;;;;;;;;;;;30.20;73.90;;;;;;5049879;28;20175;-74
2022/08/01 12:31:32;;;;;;;;;;;31.00;72.80;;;;;;5052130;28;19962;-74
2022/08/01 12:33:58;;;;;;;;;;;32.30;69.70;;;;;;5051553;28;20396;-74
2022/08/01 12:36:29;;;;;;;;;;;34.10;65.40;;;;;;5052229;28;19912;-74
2022/08/01 12:38:57;;;;;;;;;;;33.30;66.90;;;;;;5046501;28;19916;-74
2022/08/01 12:41:22;;;;;;;;;;;30.60;73.20;;;;;;5050631;28;19919;-74
2022/08/01 12:43:48;;;;;;;;;;;30.40;77.70;;;;;;5051377;28;19909;-72
2022/08/01 12:46:17;;;;;;;;;;;34.40;68.20;;;;;;5052238;28;19912;-74
2022/08/01 12:48:43;;;;;;;;;;;35.10;62.40;;;;;;5052489;28;19974;-74
2022/08/01 12:51:09;;;;;;;;;;;35.50;59.80;;;;;;5047744;28;19909;-74
2022/08/01 12:53:35;;;;;;;;;;;34.80;59.80;;;;;;5050176;28;19919;-74
2022/08/01 12:56:00;;;;;;;;;;;32.60;63.50;;;;;;5051799;28;19909;-74
2022/08/01 12:58:32;;;;;;;;;;;31.90;67.20;;;;;;5050425;28;19913;-74
2022/08/01 13:01:06;;;;;;;;;;;29.70;74.60;;;;;;5047577;28;20003;-74
2022/08/01 13:03:32;;;;;;;;;;;28.20;74.00;;;;;;5044870;28;19967;-74
2022/08/01 13:05:58;;;;;;;;;;;27.50;78.10;;;;;;5051217;28;20366;-73
2022/08/01 13:08:31;;;;;;;;;;;27.30;77.70;;;;;;5051266;28;20377;-73
2022/08/01 13:11:00;;;;;;;;;;;27.40;75.20;;;;;;5051547;28;19916;-73
2022/08/01 13:13:36;;;;;;;;;;;28.10;75.80;;;;;;5050247;28;19916;-74
2022/08/01 13:16:03;;;;;;;;;;;33.10;63.80;;;;;;5051284;28;20386;-74
2022/08/01 13:18:29;;;;;;;;;;;34.20;60.00;;;;;;5051450;28;19912;-74
2022/08/01 13:21:07;;;;;;;;;;;33.60;60.80;;;;;;5050115;28;19991;-74
2022/08/01 13:23:33;;;;;;;;;;;34.20;60.10;;;;;;5047391;28;19908;-74
2022/08/01 13:25:58;;;;;;;;;;;30.40;68.40;;;;;;5051002;28;19916;-74
2022/08/01 13:28:27;;;;;;;;;;;32.70;63.20;;;;;;5051541;28;19912;-74
2022/08/01 13:31:07;;;;;;;;;;;33.60;64.20;;;;;;5051563;28;20003;-75
2022/08/01 13:33:48;;;;;;;;;;;32.20;63.60;;;;;;5049828;28;20004;-74
2022/08/01 13:36:14;;;;;;;;;;;29.00;69.60;;;;;;5045510;28;19909;-74
2022/08/01 13:41:24;;;;;;;;;;;28.40;74.90;;;;;;5050879;28;19924;-76
2022/08/01 13:43:50;;;;;;;;;;;32.40;62.90;;;;;;5050255;28;20289;-76
2022/08/01 13:46:15;;;;;;;;;;;29.80;67.40;;;;;;5050438;28;19916;-76
2022/08/01 13:48:41;;;;;;;;;;;28.40;71.40;;;;;;5046284;28;20007;-76
2022/08/01 13:51:06;;;;;;;;;;;27.60;75.10;;;;;;5047257;28;20340;-75
2022/08/01 13:53:32;;;;;;;;;;;27.20;76.90;;;;;;5049789;28;19909;-76
2022/08/01 13:55:57;;;;;;;;;;;27.00;75.10;;;;;;5050422;28;19912;-76
2022/08/01 13:58:23;;;;;;;;;;;27.30;75.50;;;;;;5049350;28;20204;-76
2022/08/01 14:00:49;;;;;;;;;;;27.30;77.90;;;;;;5046547;28;20385;-73
2022/08/01 14:03:16;;;;;;;;;;;28.20;75.60;;;;;;5056859;28;20286;-74
2022/08/01 14:05:42;;;;;;;;;;;28.20;73.70;;;;;;5044015;28;20394;-74
2022/08/01 14:08:08;;;;;;;;;;;27.70;74.50;;;;;;5048181;28;19924;-74
2022/08/01 14:10:34;;;;;;;;;;;27.70;76.80;;;;;;5049358;28;19920;-74
2022/08/01 14:12:59;;;;;;;;;;;27.50;76.70;;;;;;5049805;28;19909;-74
2022/08/01 14:15:25;;;;;;;;;;;26.80;76.80;;;;;;5050286;28;20439;-75
2022/08/01 14:17:50;;;;;;;;;;;26.90;78.00;;;;;;5048037;28;20409;-75
2022/08/01 14:20:19;;;;;;;;;;;27.40;78.60;;;;;;5051760;28;19962;-75
2022/08/01 14:22:45;;;;;;;;;;;28.00;76.40;;;;;;5050620;28;19916;-75